Time;durP1;ratioP1;P1;durP2;ratioP2;P2;SDS_P1;SDS_P2;PMS_P1;PMS_P2;Temp;Humidity;BMP_temperature;BMP_pressure;BME280_temperature;BME280_humidity;BME280_pressure;Samples;Min_cycle;Max_cycle;Signal;HPM_P1;HPM_P2
2023/01/16 00:00:49;;;;;;;7.70;2.25;;;4.30;99.90;;;;;;4996227;28;20037;-55
2023/01/16 00:03:15;;;;;;;4.95;2.20;;;4.30;99.90;;;;;;5006015;28;20473;-51
2023/01/16 00:05:42;;;;;;;5.63;2.20;;;4.40;99.90;;;;;;5003021;28;20129;-50
2023/01/16 00:08:07;;;;;;;4.88;2.20;;;4.40;99.90;;;;;;5002974;28;20514;-53
2023/01/16 00:10:33;;;;;;;9.07;2.42;;;4.40;99.90;;;;;;5002682;28;20065;-55
2023/01/16 00:12:58;;;;;;;5.88;1.70;;;4.50;99.90;;;;;;5006245;28;20030;-54
2023/01/16 00:15:24;;;;;;;7.53;2.15;;;4.50;99.90;;;;;;5002572;28;20042;-52
2023/01/16 00:17:50;;;;;;;6.20;2.30;;;4.60;99.90;;;;;;5005521;28;20041;-51
2023/01/16 00:20:16;;;;;;;6.45;2.03;;;4.60;99.90;;;;;;5007064;28;20042;-51
2023/01/16 00:22:42;;;;;;;8.57;2.20;;;4.60;99.90;;;;;;5001779;28;20048;-54
2023/01/16 00:25:08;;;;;;;6.22;2.17;;;4.70;99.90;;;;;;5003361;28;20046;-53
2023/01/16 00:27:33;;;;;;;8.73;2.30;;;4.70;99.90;;;;;;5001853;28;20042;-51
2023/01/16 00:29:59;;;;;;;6.20;2.25;;;4.60;99.90;;;;;;5008223;28;20049;-54
2023/01/16 00:32:25;;;;;;;6.78;2.08;;;4.60;99.90;;;;;;5005196;28;20505;-54
2023/01/16 00:34:50;;;;;;;7.72;2.20;;;4.60;99.90;;;;;;4995007;28;20042;-51
2023/01/16 00:37:16;;;;;;;6.95;2.08;;;4.60;99.90;;;;;;5001523;28;20108;-51
2023/01/16 00:39:42;;;;;;;7.68;2.10;;;4.50;99.90;;;;;;5000911;28;20129;-54
2023/01/16 00:42:07;;;;;;;9.27;1.83;;;4.50;99.90;;;;;;5003014;28;20034;-54
2023/01/16 00:44:34;;;;;;;6.75;1.80;;;4.50;99.90;;;;;;5005939;28;20049;-51
2023/01/16 00:47:00;;;;;;;6.00;2.03;;;4.60;99.90;;;;;;5006015;28;20050;-51
2023/01/16 00:49:25;;;;;;;7.72;2.15;;;4.60;99.90;;;;;;5001182;28;20038;-53
2023/01/16 00:51:52;;;;;;;4.88;1.90;;;4.60;99.90;;;;;;5003336;28;20090;-49
2023/01/16 00:54:18;;;;;;;6.40;2.30;;;4.60;99.90;;;;;;5009481;28;20048;-52
2023/01/16 00:56:43;;;;;;;5.53;1.80;;;4.70;99.90;;;;;;5005079;28;20117;-50
2023/01/16 00:59:10;;;;;;;6.72;2.35;;;4.70;99.90;;;;;;5006329;28;20139;-53
2023/01/16 01:01:35;;;;;;;7.07;2.20;;;4.70;99.90;;;;;;4999315;28;20088;-53
2023/01/16 01:04:01;;;;;;;7.82;1.50;;;4.70;99.90;;;;;;5000678;28;20444;-51
2023/01/16 01:06:27;;;;;;;6.95;1.88;;;4.70;99.90;;;;;;5002139;28;20380;-49
2023/01/16 01:08:52;;;;;;;5.20;1.52;;;4.80;99.90;;;;;;5002528;28;20552;-54
2023/01/16 01:11:18;;;;;;;7.53;1.77;;;4.70;99.90;;;;;;5002421;28;20400;-50
2023/01/16 01:13:44;;;;;;;6.72;1.85;;;4.80;99.90;;;;;;5003562;28;20096;-49
2023/01/16 01:16:11;;;;;;;7.90;2.08;;;4.80;99.90;;;;;;5008237;28;20396;-50
2023/01/16 01:18:37;;;;;;;5.80;1.80;;;4.80;99.90;;;;;;5002487;28;20168;-52
2023/01/16 01:21:03;;;;;;;5.90;1.58;;;4.80;99.90;;;;;;5002035;28;20038;-52
2023/01/16 01:23:29;;;;;;;5.80;2.40;;;4.80;99.90;;;;;;5002428;28;20070;-53
2023/01/16 01:25:55;;;;;;;5.93;1.95;;;4.80;99.90;;;;;;4994290;28;20073;-53
2023/01/16 01:28:21;;;;;;;5.20;1.60;;;4.80;99.90;;;;;;5001224;28;20037;-51
2023/01/16 01:30:46;;;;;;;7.35;2.45;;;4.80;99.90;;;;;;5002088;28;20038;-50
2023/01/16 01:33:12;;;;;;;9.13;2.35;;;4.80;99.90;;;;;;5002092;28;20077;-51
2023/01/16 01:35:38;;;;;;;8.05;1.60;;;4.80;99.90;;;;;;5002942;28;20121;-52
2023/01/16 01:38:04;;;;;;;7.22;2.13;;;4.80;99.90;;;;;;5008642;28;20117;-50
2023/01/16 01:40:30;;;;;;;6.28;1.52;;;4.90;99.90;;;;;;5000226;28;20042;-53
2023/01/16 01:42:56;;;;;;;6.47;1.95;;;4.90;99.90;;;;;;5003535;28;20042;-50
2023/01/16 01:45:30;;;;;;;8.73;2.20;;;4.90;99.90;;;;;;5007568;28;20403;-51
2023/01/16 01:48:18;;;;;;;5.03;2.20;;;4.90;99.90;;;;;;5007424;28;20054;-53
2023/01/16 01:50:49;;;;;;;;;;;4.90;99.90;;;;;;5001610;28;20049;-52
2023/01/16 01:53:18;;;;;;;3.17;1.70;;;4.90;99.90;;;;;;5005966;28;19921;-49
2023/01/16 01:55:46;;;;;;;4.13;1.50;;;4.90;99.90;;;;;;5003739;28;20116;-52
2023/01/16 01:58:20;;;;;;;5.03;1.80;;;4.90;99.90;;;;;;5002324;28;20133;-51
2023/01/16 02:00:48;;;;;;;7.45;2.17;;;4.90;99.90;;;;;;5000119;28;20042;-52
2023/01/16 02:03:15;;;;;;;;;;;4.90;99.90;;;;;;4997754;28;20511;-54
2023/01/16 02:05:46;;;;;;;6.32;2.17;;;4.90;99.90;;;;;;5001647;28;19995;-52
2023/01/16 02:08:18;;;;;;;4.32;2.08;;;5.00;99.90;;;;;;5004087;28;20172;-51
2023/01/16 02:10:45;;;;;;;7.90;2.10;;;5.00;99.90;;;;;;4999955;28;20053;-54
2023/01/16 02:13:11;;;;;;;5.00;2.35;;;4.90;99.90;;;;;;5002696;28;20092;-51
2023/01/16 02:19:14;;;;;;;6.82;2.53;;;5.00;99.90;;;;;;5001014;28;20413;-51
2023/01/16 02:21:33;;;;;;;5.50;2.08;;;5.00;99.90;;;;;;5007526;28;20416;-49
2023/01/16 02:24:37;;;;;;;4.75;1.88;;;4.90;99.90;;;;;;5009601;28;20038;-50
2023/01/16 02:27:37;;;;;;;6.28;2.08;;;5.00;99.90;;;;;;5002866;28;20501;-49
2023/01/16 02:30:23;;;;;;;7.10;2.45;;;4.90;99.90;;;;;;5009920;28;20045;-54
2023/01/16 02:33:10;;;;;;;3.38;2.00;;;4.90;99.90;;;;;;5007447;28;20119;-52
2023/01/16 02:36:00;;;;;;;3.88;2.00;;;4.90;99.90;;;;;;5007871;28;20093;-52
2023/01/16 02:38:52;;;;;;;6.78;2.03;;;4.90;99.90;;;;;;5005513;28;20065;-51
2023/01/16 02:41:44;;;;;;;3.28;2.03;;;4.90;99.90;;;;;;5005286;28;20560;-55
2023/01/16 02:44:32;;;;;;;3.95;1.80;;;4.90;99.90;;;;;;5007905;28;20046;-53
2023/01/16 02:47:43;;;;;;;5.35;2.00;;;4.90;99.90;;;;;;5003255;28;20138;-52
2023/01/16 02:50:20;;;;;;;6.68;2.00;;;4.80;99.90;;;;;;4993038;28;20088;-54
2023/01/16 02:53:12;;;;;;;6.57;2.30;;;4.70;99.90;;;;;;5005790;28;20129;-52
2023/01/16 02:55:44;;;;;;;5.55;2.22;;;4.70;99.90;;;;;;5003987;28;20473;-54
2023/01/16 02:58:11;;;;;;;6.07;2.40;;;4.60;99.90;;;;;;5013163;28;20117;-51
2023/01/16 03:00:37;;;;;;;4.85;2.60;;;4.60;99.90;;;;;;5012440;28;20034;-52
2023/01/16 03:03:03;;;;;;;7.13;2.35;;;4.60;99.90;;;;;;5003866;28;20137;-54
2023/01/16 03:05:38;;;;;;;4.05;2.47;;;4.60;99.90;;;;;;5005287;28;20060;-52
2023/01/16 03:08:10;;;;;;;2.63;2.35;;;4.70;99.90;;;;;;5004211;28;20128;-54
2023/01/16 03:11:06;;;;;;;4.97;3.00;;;4.60;99.90;;;;;;5004157;28;20042;-51
2023/01/16 03:14:09;;;;;;;4.55;3.05;;;4.60;99.90;;;;;;5011944;28;20080;-51
2023/01/16 03:17:10;;;;;;;3.33;3.03;;;4.70;99.90;;;;;;5000653;28;20470;-50
2023/01/16 03:19:42;;;;;;;3.55;3.15;;;4.70;99.90;;;;;;4998427;28;20065;-51
2023/01/16 03:22:36;;;;;;;7.28;4.07;;;4.60;99.90;;;;;;4998981;28;20048;-49
2023/01/16 03:25:28;;;;;;;6.22;4.00;;;4.60;99.90;;;;;;4999059;28;20053;-52
2023/01/16 03:27:59;;;;;;;5.07;4.55;;;4.60;99.90;;;;;;5009302;28;20050;-50
2023/01/16 03:30:48;;;;;;;6.40;5.22;;;4.60;99.90;;;;;;5001938;28;20038;-51
2023/01/16 03:33:43;;;;;;;6.05;5.45;;;4.60;99.90;;;;;;5007579;28;20242;-50
2023/01/16 03:36:27;;;;;;;7.03;6.38;;;4.60;99.90;;;;;;5003179;28;20074;-50
2023/01/16 03:38:55;;;;;;;6.82;6.13;;;4.50;99.90;;;;;;5004125;28;20057;-50
2023/01/16 03:41:23;;;;;;;;;;;4.50;99.90;;;;;;5004213;28;20046;-50
2023/01/16 03:43:52;;;;;;;8.20;6.93;;;4.50;99.90;;;;;;5012222;28;19921;-54
2023/01/16 03:46:36;;;;;;;9.57;7.18;;;4.50;99.90;;;;;;5005353;28;20091;-50
2023/01/16 03:49:07;;;;;;;9.68;8.65;;;4.40;99.90;;;;;;5010645;28;20046;-51
2023/01/16 03:51:36;;;;;;;10.00;8.48;;;4.40;99.90;;;;;;5007635;28;22079;-50
2023/01/16 03:54:27;;;;;;;13.93;9.43;;;4.40;99.90;;;;;;5005126;28;20048;-52
2023/01/16 03:57:18;;;;;;;12.52;10.23;;;4.40;99.90;;;;;;5005095;28;20046;-52
2023/01/16 03:59:46;;;;;;;11.23;10.05;;;4.40;99.90;;;;;;5002362;28;20038;-53
2023/01/16 04:02:18;;;;;;;12.43;10.13;;;4.40;99.90;;;;;;5003994;28;20065;-53
2023/01/16 04:04:59;;;;;;;14.05;10.90;;;4.40;99.90;;;;;;5002778;28;20077;-50
2023/01/16 04:07:34;;;;;;;14.13;11.52;;;4.30;99.90;;;;;;5003563;28;20045;-49
2023/01/16 04:10:04;;;;;;;13.85;11.45;;;4.30;99.90;;;;;;5004012;28;20183;-54
2023/01/16 04:12:35;;;;;;;13.52;11.70;;;4.30;99.90;;;;;;5007467;28;20049;-52
2023/01/16 04:15:07;;;;;;;13.40;11.20;;;4.30;99.90;;;;;;4998501;28;20045;-54
2023/01/16 04:17:38;;;;;;;13.70;10.48;;;4.30;99.90;;;;;;5003804;28;20057;-50
2023/01/16 04:20:05;;;;;;;13.43;10.30;;;4.30;99.90;;;;;;5002475;28;20049;-50
2023/01/16 04:22:31;;;;;;;13.70;9.98;;;4.30;99.90;;;;;;5003161;28;20100;-53
2023/01/16 04:25:00;;;;;;;12.23;9.95;;;4.30;99.90;;;;;;4997613;28;20497;-51
2023/01/16 04:27:26;;;;;;;12.98;9.38;;;4.30;99.90;;;;;;5002590;28;20045;-50
2023/01/16 04:29:51;;;;;;;13.95;8.50;;;4.40;99.90;;;;;;5006448;28;20036;-51
2023/01/16 04:32:17;;;;;;;9.65;8.57;;;4.40;99.90;;;;;;4998738;28;20037;-55
2023/01/16 04:34:43;;;;;;;12.05;8.20;;;4.40;99.90;;;;;;4985163;28;20048;-51
2023/01/16 04:37:12;;;;;;;11.60;7.45;;;4.40;99.90;;;;;;4999008;28;20060;-50
2023/01/16 04:39:38;;;;;;;8.23;7.30;;;4.40;99.90;;;;;;5002439;28;20042;-51
2023/01/16 04:42:04;;;;;;;11.23;6.53;;;4.30;99.90;;;;;;4998155;28;20038;-51
2023/01/16 04:44:29;;;;;;;8.82;6.30;;;4.20;99.90;;;;;;4998683;28;20089;-50
2023/01/16 04:46:55;;;;;;;8.63;6.35;;;4.10;99.90;;;;;;5001332;28;20037;-49
2023/01/16 04:49:20;;;;;;;9.43;6.10;;;4.00;99.90;;;;;;5005488;28;20045;-49
2023/01/16 04:51:46;;;;;;;12.13;6.40;;;3.90;99.90;;;;;;4996723;28;20053;-50
2023/01/16 04:54:16;;;;;;;8.50;5.88;;;3.90;99.90;;;;;;5000206;28;20033;-50
2023/01/16 04:56:42;;;;;;;8.85;6.30;;;3.80;99.90;;;;;;5006516;28;20042;-49
2023/01/16 04:59:09;;;;;;;12.13;6.28;;;3.80;99.90;;;;;;5003543;28;20084;-50
2023/01/16 05:01:36;;;;;;;15.13;6.75;;;3.70;99.90;;;;;;5001444;28;20068;-52
2023/01/16 05:04:03;;;;;;;9.52;6.35;;;3.70;99.90;;;;;;4997966;28;20508;-51
2023/01/16 05:06:29;;;;;;;12.25;6.40;;;3.60;99.90;;;;;;5000454;28;20108;-51
2023/01/16 05:08:54;;;;;;;9.38;6.32;;;3.60;99.90;;;;;;5008872;28;20499;-51
2023/01/16 05:11:20;;;;;;;11.18;6.55;;;3.60;99.90;;;;;;5001350;28;20054;-50
2023/01/16 05:13:45;;;;;;;9.98;5.85;;;3.50;99.90;;;;;;5004323;28;20030;-50
2023/01/16 05:16:11;;;;;;;11.10;6.38;;;3.50;99.90;;;;;;5000672;28;20038;-51
2023/01/16 05:18:37;;;;;;;13.95;6.47;;;3.40;99.90;;;;;;5000308;28;20046;-51
2023/01/16 05:21:03;;;;;;;10.55;6.28;;;3.40;99.90;;;;;;4997998;28;20042;-51
2023/01/16 05:23:29;;;;;;;10.93;6.30;;;3.30;99.90;;;;;;4998310;28;20073;-54
2023/01/16 05:25:55;;;;;;;12.07;6.30;;;3.30;99.90;;;;;;4999424;28;20072;-52
2023/01/16 05:28:20;;;;;;;10.55;5.60;;;3.40;99.90;;;;;;4998370;28;20527;-51
2023/01/16 05:30:49;;;;;;;10.85;5.95;;;3.30;99.90;;;;;;5006030;28;20119;-52
2023/01/16 05:33:15;;;;;;;9.75;5.93;;;3.40;99.90;;;;;;5000324;28;20535;-49
2023/01/16 05:35:40;;;;;;;12.35;6.30;;;3.40;99.90;;;;;;4999595;28;20038;-50
2023/01/16 05:38:06;;;;;;;10.98;6.07;;;3.40;99.90;;;;;;4999084;28;20038;-52
2023/01/16 05:40:32;;;;;;;9.57;5.90;;;3.40;99.90;;;;;;5004409;28;20046;-52
2023/01/16 05:42:57;;;;;;;14.43;6.25;;;3.50;99.90;;;;;;5003344;28;20070;-51
2023/01/16 05:45:23;;;;;;;8.23;5.25;;;3.50;99.90;;;;;;5001778;28;20049;-50
2023/01/16 05:47:48;;;;;;;10.10;5.75;;;3.50;99.90;;;;;;4999455;28;20140;-49
2023/01/16 05:50:14;;;;;;;8.07;4.82;;;3.50;99.90;;;;;;4999127;28;20125;-49
2023/01/16 05:52:40;;;;;;;6.90;5.00;;;3.50;99.90;;;;;;5001009;28;20117;-51
2023/01/16 05:55:06;;;;;;;9.52;4.95;;;3.60;99.90;;;;;;5002746;28;20053;-51
2023/01/16 05:57:32;;;;;;;15.45;5.03;;;3.50;99.90;;;;;;5005906;28;20042;-49
2023/01/16 05:59:57;;;;;;;9.93;5.25;;;3.50;99.90;;;;;;5005056;28;20500;-49
2023/01/16 06:02:23;;;;;;;8.90;4.85;;;3.50;99.90;;;;;;5005167;28;20042;-49
2023/01/16 06:04:48;;;;;;;8.80;4.55;;;3.50;99.90;;;;;;5003470;28;20069;-51
2023/01/16 06:07:14;;;;;;;7.25;4.57;;;3.50;99.90;;;;;;5001573;28;20077;-51
2023/01/16 06:09:40;;;;;;;9.60;4.90;;;3.40;99.90;;;;;;5003864;28;20060;-53
2023/01/16 06:12:09;;;;;;;11.23;4.35;;;3.40;99.90;;;;;;5002074;28;20415;-51
2023/01/16 06:14:35;;;;;;;8.52;4.13;;;3.40;99.90;;;;;;5008616;28;20080;-50
2023/01/16 06:17:01;;;;;;;7.88;4.30;;;3.40;99.90;;;;;;5002359;28;20033;-50
2023/01/16 06:19:26;;;;;;;7.22;4.15;;;3.40;99.90;;;;;;5004854;28;20493;-51
2023/01/16 06:21:52;;;;;;;9.18;4.57;;;3.40;99.90;;;;;;5004805;28;20054;-51
2023/01/16 06:24:18;;;;;;;8.50;4.60;;;3.40;99.90;;;;;;5003398;28;20046;-51
2023/01/16 06:26:43;;;;;;;11.32;4.40;;;3.40;99.90;;;;;;5005302;28;20046;-50
2023/01/16 06:29:10;;;;;;;10.98;4.78;;;3.30;99.90;;;;;;5003451;28;20492;-50
2023/01/16 06:31:36;;;;;;;8.68;4.30;;;3.30;99.90;;;;;;5010876;28;20034;-53
2023/01/16 06:34:02;;;;;;;8.95;3.97;;;3.40;99.90;;;;;;5004092;28;20045;-53
2023/01/16 06:36:27;;;;;;;9.90;3.65;;;3.30;99.90;;;;;;5005822;28;20034;-51
2023/01/16 06:38:53;;;;;;;9.20;3.67;;;3.30;99.90;;;;;;5004572;28;20415;-50
2023/01/16 06:41:19;;;;;;;12.18;3.67;;;3.40;99.90;;;;;;5006218;28;20038;-49
2023/01/16 06:43:44;;;;;;;7.70;3.55;;;3.30;99.90;;;;;;5000503;28;20517;-51
2023/01/16 06:46:10;;;;;;;8.30;3.60;;;3.30;99.90;;;;;;5005322;28;20125;-54
2023/01/16 06:48:36;;;;;;;10.43;3.90;;;3.40;99.90;;;;;;5004521;28;20142;-54
2023/01/16 06:51:01;;;;;;;9.55;3.75;;;3.40;99.90;;;;;;5004656;28;20069;-51
2023/01/16 06:53:27;;;;;;;11.15;4.10;;;3.40;99.90;;;;;;5008107;28;20444;-50
2023/01/16 06:55:53;;;;;;;9.63;4.30;;;3.40;99.90;;;;;;5007270;28;20479;-50
2023/01/16 06:58:18;;;;;;;8.25;3.90;;;3.40;99.90;;;;;;5007316;28;20117;-50
2023/01/16 07:00:44;;;;;;;8.95;4.30;;;3.40;99.90;;;;;;5006614;28;20037;-50
2023/01/16 07:03:11;;;;;;;7.13;3.72;;;3.40;99.90;;;;;;5001895;28;20132;-52
2023/01/16 07:05:36;;;;;;;10.45;4.03;;;3.40;99.90;;;;;;5003491;28;20034;-50
2023/01/16 07:08:02;;;;;;;13.27;4.32;;;3.40;99.90;;;;;;5001241;28;20404;-50
2023/01/16 07:10:28;;;;;;;8.48;4.13;;;3.50;99.90;;;;;;5004886;28;20100;-53
2023/01/16 07:12:54;;;;;;;13.55;4.53;;;3.50;99.90;;;;;;5005665;28;20042;-50
2023/01/16 07:23:46;;;;;;;11.23;4.22;;;3.50;99.90;;;;;;5004854;28;20411;-50
2023/01/16 07:26:14;;;;;;;9.48;4.05;;;3.50;99.90;;;;;;4999610;28;20038;-52
2023/01/16 07:28:40;;;;;;;7.60;4.63;;;3.50;99.90;;;;;;5009887;28;20120;-50
2023/01/16 07:31:07;;;;;;;9.27;5.00;;;3.50;99.90;;;;;;5006644;28;20045;-54
2023/01/16 07:33:33;;;;;;;11.07;5.88;;;3.50;99.90;;;;;;5000980;28;20077;-50
2023/01/16 07:35:59;;;;;;;8.82;4.95;;;3.50;99.90;;;;;;5004730;28;20131;-50
2023/01/16 07:38:24;;;;;;;9.40;5.85;;;3.50;99.90;;;;;;5004033;28;20034;-52
2023/01/16 07:40:50;;;;;;;11.05;5.50;;;3.50;99.90;;;;;;5003753;28;20074;-51
2023/01/16 07:43:16;;;;;;;10.05;5.20;;;3.50;99.90;;;;;;5004683;28;20046;-51
2023/01/16 07:45:41;;;;;;;6.53;4.95;;;3.50;99.90;;;;;;5003111;28;20449;-50
2023/01/16 07:48:07;;;;;;;10.55;5.10;;;3.50;99.90;;;;;;5002473;28;20049;-50
2023/01/16 07:50:33;;;;;;;8.70;5.05;;;3.60;99.90;;;;;;5005654;28;20423;-51
2023/01/16 07:52:58;;;;;;;9.15;5.18;;;3.60;99.90;;;;;;5004852;28;20603;-51
2023/01/16 07:55:24;;;;;;;10.45;5.28;;;3.60;99.90;;;;;;5003994;28;20046;-52
2023/01/16 07:57:50;;;;;;;8.50;4.80;;;3.60;99.90;;;;;;5005204;28;20042;-53
2023/01/16 08:00:16;;;;;;;8.18;4.80;;;3.60;99.90;;;;;;5009204;28;20459;-52
2023/01/16 08:02:42;;;;;;;11.35;4.85;;;3.60;99.90;;;;;;5009379;28;20045;-50
2023/01/16 08:05:09;;;;;;;7.88;4.50;;;3.70;99.90;;;;;;5003755;28;20057;-52
2023/01/16 08:07:35;;;;;;;10.30;4.88;;;3.70;99.90;;;;;;5003456;28;20164;-50
2023/01/16 08:10:01;;;;;;;8.77;3.58;;;3.70;99.90;;;;;;5003524;28;20064;-50
2023/01/16 08:12:26;;;;;;;8.00;4.05;;;3.70;99.90;;;;;;5001103;28;20034;-50
2023/01/16 08:14:52;;;;;;;7.15;3.70;;;3.80;99.90;;;;;;5004604;28;20050;-50
2023/01/16 08:17:17;;;;;;;5.53;4.00;;;3.80;99.90;;;;;;5011494;28;20092;-52
2023/01/16 08:19:43;;;;;;;8.50;3.60;;;3.80;99.90;;;;;;5013660;28;20117;-55
2023/01/16 08:22:09;;;;;;;6.32;3.85;;;3.90;99.90;;;;;;5004008;28;20045;-51
2023/01/16 08:24:34;;;;;;;9.55;3.90;;;3.90;99.90;;;;;;5005004;28;20092;-50
2023/01/16 08:27:00;;;;;;;5.63;3.70;;;3.90;99.90;;;;;;5004636;28;20080;-50
2023/01/16 08:29:26;;;;;;;6.30;3.45;;;4.00;99.90;;;;;;5003318;28;20129;-49
2023/01/16 08:31:51;;;;;;;8.32;3.75;;;4.00;99.90;;;;;;5001599;28;20037;-50
2023/01/16 08:34:17;;;;;;;6.15;3.70;;;4.00;99.90;;;;;;4999005;28;20049;-53
2023/01/16 08:36:43;;;;;;;6.22;3.50;;;4.00;99.90;;;;;;5000262;28;20056;-50
2023/01/16 08:39:10;;;;;;;9.00;3.30;;;4.00;99.90;;;;;;5000876;28;20033;-50
2023/01/16 08:53:02;;;;;;;5.75;2.75;;;4.00;99.90;;;;;;5002620;28;20468;-51
2023/01/16 08:55:29;;;;;;;7.00;2.90;;;4.00;99.90;;;;;;5005268;28;20073;-51
2023/01/16 08:57:56;;;;;;;6.63;2.80;;;4.00;99.90;;;;;;5003840;28;20179;-53
2023/01/16 09:00:22;;;;;;;3.97;2.60;;;4.00;99.90;;;;;;5005182;28;20046;-53
2023/01/16 09:02:48;;;;;;;6.63;2.75;;;4.00;99.90;;;;;;5003281;28;20040;-53
2023/01/16 09:05:14;;;;;;;5.68;2.80;;;4.00;99.90;;;;;;5001559;28;20037;-50
2023/01/16 09:07:40;;;;;;;5.88;2.40;;;4.00;99.90;;;;;;5001679;28;20461;-50
2023/01/16 09:10:06;;;;;;;4.35;2.38;;;4.10;99.90;;;;;;5001227;28;20048;-50
2023/01/16 09:15:16;;;;;;;5.45;2.40;;;4.10;99.90;;;;;;4997316;28;20050;-50
2023/01/16 09:17:42;;;;;;;8.52;2.78;;;;;;;;;;5005000;28;20120;-49
2023/01/16 09:20:13;;;;;;;3.10;2.00;;;4.10;99.90;;;;;;5002549;28;20053;-53
2023/01/16 09:22:38;;;;;;;2.38;1.85;;;4.20;99.90;;;;;;4998396;28;20056;-49
2023/01/16 09:25:04;;;;;;;6.07;1.98;;;4.20;99.90;;;;;;5002248;28;20042;-49
2023/01/16 09:27:30;;;;;;;2.67;1.67;;;4.20;99.90;;;;;;5012734;28;20064;-49
2023/01/16 09:29:55;;;;;;;6.85;1.40;;;4.20;99.90;;;;;;5007972;28;20042;-53
2023/01/16 09:32:21;;;;;;;2.00;1.60;;;4.20;99.90;;;;;;5008864;28;20033;-49
2023/01/16 09:34:46;;;;;;;3.78;1.50;;;4.30;99.90;;;;;;5011655;28;20119;-49
2023/01/16 09:37:12;;;;;;;2.97;1.40;;;4.30;99.90;;;;;;5009166;28;20038;-50
2023/01/16 09:39:38;;;;;;;6.10;1.83;;;4.30;99.90;;;;;;5007724;28;20038;-53
2023/01/16 09:45:30;;;;;;;4.68;1.50;;;4.40;99.90;;;;;;4951265;28;20063;-50
2023/01/16 09:48:04;;;;;;;2.88;1.45;;;4.40;99.90;;;;;;4954016;28;20454;-51
2023/01/16 09:50:45;;;;;;;5.18;1.80;;;4.40;99.90;;;;;;4949784;28;20059;-50
2023/01/16 09:58:56;;;;;;;6.93;2.08;;;4.30;99.90;;;;;;4944066;28;20552;-50
2023/01/16 10:01:39;;;;;;;4.45;1.83;;;4.30;99.90;;;;;;4945554;28;20494;-50
2023/01/16 10:04:23;;;;;;;3.95;1.83;;;4.30;99.90;;;;;;4939515;29;20087;-53
2023/01/16 10:07:04;;;;;;;5.50;1.73;;;4.30;99.90;;;;;;4932753;29;20050;-50
2023/01/16 10:09:32;;;;;;;3.92;1.67;;;4.30;99.90;;;;;;4943616;28;20065;-52
2023/01/16 10:12:03;;;;;;;2.83;1.50;;;4.20;99.90;;;;;;4943533;28;20176;-50
2023/01/16 10:14:40;;;;;;;2.90;1.70;;;4.20;99.90;;;;;;4932273;29;20043;-51
2023/01/16 10:17:15;;;;;;;2.70;1.40;;;4.20;99.90;;;;;;5000863;28;20103;-51
2023/01/16 10:20:10;;;;;;;1.92;1.40;;;4.20;99.90;;;;;;5007168;28;20575;-49
2023/01/16 10:22:44;;;;;;;2.60;1.50;;;4.20;99.90;;;;;;4981384;28;20056;-51
2023/01/16 10:25:31;;;;;;;3.72;1.45;;;4.20;99.90;;;;;;5004305;28;20049;-51
2023/01/16 10:28:25;;;;;;;5.05;1.40;;;4.20;99.90;;;;;;5004718;28;20037;-50
2023/01/16 10:30:55;;;;;;;2.35;1.40;;;4.20;99.90;;;;;;5003319;28;20420;-52
2023/01/16 10:33:31;;;;;;;4.95;2.05;;;4.20;99.90;;;;;;5009856;28;20412;-52
2023/01/16 10:36:00;;;;;;;5.78;1.90;;;4.10;99.90;;;;;;5005785;28;20076;-51
2023/01/16 10:38:45;;;;;;;2.95;1.50;;;4.10;99.90;;;;;;5004219;28;20055;-50
2023/01/16 10:49:43;;;;;;;4.22;2.28;;;4.20;99.90;;;;;;5007359;28;20046;-52
2023/01/16 10:52:09;;;;;;;5.53;2.15;;;4.20;99.90;;;;;;5010611;28;20044;-51
2023/01/16 10:54:35;;;;;;;4.95;2.10;;;4.20;99.90;;;;;;5007932;28;20088;-50
2023/01/16 10:57:03;;;;;;;5.28;2.40;;;4.20;99.90;;;;;;5006832;28;20038;-50
2023/01/16 10:59:31;;;;;;;4.22;2.00;;;4.20;99.90;;;;;;5008073;28;20049;-51
2023/01/16 11:02:03;;;;;;;4.40;1.80;;;4.30;99.90;;;;;;5004381;28;20460;-50
2023/01/16 11:04:36;;;;;;;3.97;1.90;;;4.30;99.90;;;;;;5010026;28;20054;-51
2023/01/16 11:07:13;;;;;;;4.32;1.77;;;4.30;99.90;;;;;;5006803;28;20096;-50
2023/01/16 11:09:39;;;;;;;3.25;2.00;;;4.20;99.90;;;;;;5006914;28;20049;-51
2023/01/16 11:20:39;;;;;;;3.55;2.03;;;4.20;99.90;;;;;;5012546;28;20049;-50
2023/01/16 11:23:11;;;;;;;2.63;2.00;;;4.30;99.90;;;;;;5014867;28;20066;-50
2023/01/16 11:25:37;;;;;;;5.95;1.77;;;4.30;99.90;;;;;;5003643;28;20124;-50
2023/01/16 11:28:06;;;;;;;3.03;2.08;;;4.30;99.90;;;;;;5004909;28;20331;-50
2023/01/16 11:30:42;;;;;;;3.15;1.92;;;4.30;99.90;;;;;;5002609;28;20112;-50
2023/01/16 11:33:21;;;;;;;4.55;2.00;;;4.30;99.90;;;;;;5007936;28;20133;-51
2023/01/16 11:35:55;;;;;;;3.05;1.77;;;4.40;99.90;;;;;;5006770;28;20061;-51
2023/01/16 11:38:22;;;;;;;3.05;1.85;;;4.40;99.90;;;;;;5005822;28;20042;-52
2023/01/16 11:40:50;;;;;;;3.80;2.03;;;;;;;;;;5009042;28;20088;-50
2023/01/16 11:46:19;;;;;;;3.50;2.00;;;4.40;99.90;;;;;;5006321;28;20053;-55
2023/01/16 11:48:46;;;;;;;4.63;1.95;;;4.50;99.90;;;;;;5003139;28;20042;-51
2023/01/16 11:51:15;;;;;;;4.60;2.08;;;4.60;99.90;;;;;;5003168;28;20143;-53
2023/01/16 11:53:45;;;;;;;4.72;2.00;;;4.60;99.90;;;;;;5004405;28;20038;-54
2023/01/16 11:56:16;;;;;;;2.78;1.90;;;4.70;99.90;;;;;;5014577;28;20458;-55
2023/01/16 11:58:52;;;;;;;5.85;2.13;;;4.70;99.90;;;;;;5013658;28;20030;-54
2023/01/16 12:04:33;;;;;;;5.22;2.00;;;4.70;99.90;;;;;;4993084;28;20050;-52
2023/01/16 12:07:19;;;;;;;4.23;1.87;;;4.70;99.90;;;;;;5009201;28;20392;-55
2023/01/16 12:10:02;;;;;;;5.53;2.08;;;4.70;99.90;;;;;;5003961;28;20045;-54
2023/01/16 12:15:34;;;;;;;3.88;1.77;;;4.80;99.90;;;;;;5007318;28;20496;-53
2023/01/16 12:18:42;;;;;;;7.45;1.95;;;4.80;99.90;;;;;;5008614;28;20385;-51
2023/01/16 12:21:46;;;;;;;4.07;2.10;;;4.70;99.90;;;;;;4925319;29;20082;-51
2023/01/16 12:24:24;;;;;;;4.88;2.20;;;4.70;99.90;;;;;;4925808;29;20055;-54
2023/01/16 12:27:02;;;;;;;4.32;2.33;;;4.70;99.90;;;;;;4925301;29;20083;-51
2023/01/16 12:29:45;;;;;;;3.30;2.17;;;4.70;99.90;;;;;;4922066;29;20063;-54
2023/01/16 12:32:33;;;;;;;2.63;1.80;;;4.70;99.90;;;;;;4929619;29;20063;-51
2023/01/16 12:35:29;;;;;;;5.95;1.92;;;4.70;99.90;;;;;;4933945;29;20043;-51
2023/01/16 12:38:08;;;;;;;3.97;1.90;;;4.70;99.90;;;;;;4930764;29;20047;-52
2023/01/16 12:43:18;;;;;;;2.88;1.75;;;4.80;99.90;;;;;;4920039;29;20454;-55
2023/01/16 12:43:58;;;;;;;2.90;1.77;;;4.80;99.90;;;;;;4921633;29;20055;-54
2023/01/16 12:46:45;;;;;;;;;;;4.90;99.90;;;;;;4912507;29;20487;-51
2023/01/16 12:49:22;;;;;;;1.77;1.55;;;4.90;99.90;;;;;;4921617;29;19934;-52
2023/01/16 12:52:00;;;;;;;3.03;1.75;;;4.90;99.90;;;;;;4969891;28;20099;-53
2023/01/16 12:54:58;;;;;;;2.03;1.35;;;4.90;99.90;;;;;;4999042;28;20042;-52
2023/01/16 12:57:48;;;;;;;1.58;1.48;;;4.90;99.90;;;;;;5008783;28;20046;-55
2023/01/16 13:00:22;;;;;;;2.28;1.30;;;4.90;99.90;;;;;;5005552;28;20412;-50
2023/01/16 13:02:57;;;;;;;1.42;1.33;;;4.90;99.90;;;;;;5005558;28;20384;-50
2023/01/16 13:05:29;;;;;;;1.75;1.30;;;5.00;99.90;;;;;;5006551;28;20045;-50
2023/01/16 13:08:18;;;;;;;2.47;1.67;;;5.00;99.90;;;;;;5006396;28;20081;-50
2023/01/16 13:13:59;;;;;;;2.67;1.58;;;5.20;99.90;;;;;;5005535;28;20050;-52
2023/01/16 13:16:37;;;;;;;2.72;1.33;;;5.30;99.90;;;;;;5006824;28;20058;-52
2023/01/16 13:19:31;;;;;;;2.53;1.42;;;5.40;99.90;;;;;;5004042;28;20515;-51
2023/01/16 13:22:15;;;;;;;2.85;1.50;;;;;;;;;;5001022;28;20065;-51
2023/01/16 13:24:51;;;;;;;3.42;1.40;;;5.50;99.90;;;;;;5003986;28;20034;-51
2023/01/16 13:27:23;;;;;;;1.42;1.33;;;5.40;99.90;;;;;;5005296;28;20042;-50
2023/01/16 13:30:00;;;;;;;1.42;1.00;;;5.50;99.90;;;;;;5004824;28;20037;-53
2023/01/16 13:32:57;;;;;;;3.23;1.40;;;5.40;99.90;;;;;;5006688;28;20140;-51
2023/01/16 13:35:28;;;;;;;1.70;1.35;;;5.30;99.90;;;;;;4997956;28;20050;-53
2023/01/16 13:38:22;;;;;;;1.83;1.00;;;5.30;99.90;;;;;;5007142;28;20492;-53
2023/01/16 13:41:27;;;;;;;2.17;1.20;;;5.20;99.90;;;;;;5006980;28;20038;-51
2023/01/16 13:47:08;;;;;;;1.77;0.95;;;5.20;99.90;;;;;;5006227;28;20050;-51
2023/01/16 13:49:34;;;;;;;3.65;1.15;;;5.20;99.90;;;;;;5005807;28;20050;-51
2023/01/16 13:52:02;;;;;;;1.80;0.90;;;5.20;99.90;;;;;;5005743;28;20552;-52
2023/01/16 13:54:41;;;;;;;2.17;1.08;;;5.30;99.90;;;;;;5004275;28;20041;-52
2023/01/16 13:57:22;;;;;;;2.85;1.20;;;5.30;99.90;;;;;;5006736;28;20088;-52
2023/01/16 13:59:52;;;;;;;2.63;0.90;;;5.40;99.90;;;;;;5005097;28;20042;-51
2023/01/16 14:02:35;;;;;;;1.90;1.30;;;5.40;99.90;;;;;;5006465;28;20053;-51
2023/01/16 14:05:26;;;;;;;2.00;0.90;;;5.40;99.90;;;;;;5006229;28;20076;-53
2023/01/16 14:10:58;;;;;;;1.23;0.80;;;5.40;99.90;;;;;;5004590;28;20408;-51
2023/01/16 14:13:31;;;;;;;1.67;1.05;;;5.40;99.90;;;;;;5009522;28;20057;-53
2023/01/16 14:19:19;;;;;;;1.67;0.90;;;5.40;99.90;;;;;;5011718;28;20053;-50
2023/01/16 14:24:42;;;;;;;1.83;0.90;;;5.50;99.90;;;;;;5013214;28;20212;-50
2023/01/16 14:27:21;;;;;;;2.58;1.00;;;5.50;99.90;;;;;;5015035;28;20160;-50
2023/01/16 14:29:55;;;;;;;2.97;1.20;;;5.40;99.90;;;;;;5014061;28;20487;-51
2023/01/16 14:32:29;;;;;;;1.60;0.95;;;5.40;99.90;;;;;;5009832;28;20137;-50
2023/01/16 14:35:09;;;;;;;3.10;1.25;;;5.40;99.90;;;;;;5004886;28;20439;-51
2023/01/16 14:37:59;;;;;;;2.65;1.30;;;5.40;99.90;;;;;;5003137;28;20395;-51